KABI

Abilene Regional Airport

Abilene, Texas, USA
METAR KABI 232152Z 06003KT 2 1/2SM BR OVC004 04/04 A3004 RMK AO2 SLP177 T00440044 $
Observed Flight Rules
Feb-23 @ 21:52 UTC (41 minutes ago) Instrument Flight Rules
Wind Visibility Clouds Conditions
60° at 3 knots 2 1/2 miles
  • Overcast at 400' AGL
  • Mist
Temperatures Readings
Current 4°C / 39°F
Dewpoint 4°C / 39°F
Humidity 100%
Altimeter 30.04" Hg
Pressure 1017.7 hPa
Elevation 548
METAR KABI 232152Z 06003KT 2 1/2SM BR OVC004 04/04 A3004 RMK AO2 SLP177 T00440044 $
Observed Flight Rules
Feb-23 @ 21:52 UTC
(41 minutes ago)
LIFR
Wind Visibility
60° at 3 knots 2 1/2 miles
Clouds
  • Overcast at 400' AGL
Conditions
  • Mist
Temperature Dewpoint
4°C / 39°F 4°C / 39°F
Humidity Altimeter Pressure
100% 30.04" Hg 1017.7 hPa